createdAt,value
2022-08-14T00:02:01.561Z,99.90
2022-08-14T00:04:34.932Z,99.90
2022-08-14T00:07:14.242Z,99.90
2022-08-14T00:09:55.510Z,99.90
2022-08-14T00:12:33.551Z,99.90
2022-08-14T00:15:09.341Z,99.90
2022-08-14T00:17:47.936Z,99.90
2022-08-14T00:20:24.211Z,99.90
2022-08-14T00:23:16.367Z,99.90
2022-08-14T00:25:59.088Z,99.90
2022-08-14T00:28:36.001Z,99.90
2022-08-14T00:31:07.997Z,99.90
2022-08-14T00:33:50.671Z,99.90
2022-08-14T00:36:36.112Z,99.90
2022-08-14T00:39:09.874Z,99.90
2022-08-14T00:41:39.054Z,99.90
2022-08-14T00:44:08.371Z,99.90
2022-08-14T00:46:37.919Z,99.90
2022-08-14T00:49:11.591Z,99.90
2022-08-14T00:51:44.529Z,99.90
2022-08-14T00:54:21.425Z,99.90
2022-08-14T00:56:55.589Z,99.90
2022-08-14T00:59:25.494Z,99.90
2022-08-14T01:01:57.201Z,99.90
2022-08-14T01:04:38.297Z,99.90
2022-08-14T01:07:20.895Z,99.90
2022-08-14T01:09:53.429Z,99.90
2022-08-14T01:12:26.306Z,99.90
2022-08-14T01:14:58.193Z,99.90
2022-08-14T01:17:50.028Z,99.90
2022-08-14T01:20:39.792Z,99.90
2022-08-14T01:23:16.219Z,99.90
2022-08-14T01:25:49.215Z,99.90
2022-08-14T01:28:46.695Z,99.90
2022-08-14T01:31:12.568Z,99.90
2022-08-14T01:33:59.662Z,99.90
2022-08-14T01:36:36.831Z,99.90
2022-08-14T01:39:12.914Z,99.90
2022-08-14T01:41:43.923Z,99.90
2022-08-14T01:44:32.138Z,99.90
2022-08-14T01:47:16.598Z,99.90
2022-08-14T01:49:58.990Z,99.90
2022-08-14T01:52:34.012Z,99.90
2022-08-14T01:55:18.577Z,99.90
2022-08-14T01:58:00.166Z,99.90
2022-08-14T02:00:38.926Z,99.90
2022-08-14T02:03:08.228Z,99.90
2022-08-14T02:05:38.948Z,99.90
2022-08-14T02:08:10.051Z,99.90
2022-08-14T02:10:47.077Z,99.90
2022-08-14T02:13:19.759Z,99.90
2022-08-14T02:15:48.638Z,99.90
2022-08-14T02:18:18.770Z,99.90
2022-08-14T02:20:49.085Z,99.90
2022-08-14T02:23:29.129Z,99.90
2022-08-14T02:26:24.214Z,99.90
2022-08-14T02:28:58.046Z,99.90
2022-08-14T02:31:42.350Z,99.90
2022-08-14T02:34:21.909Z,99.90
2022-08-14T02:37:04.720Z,99.90
2022-08-14T02:39:37.107Z,99.90
2022-08-14T02:42:13.064Z,99.90
2022-08-14T02:44:49.327Z,99.90
2022-08-14T02:47:21.266Z,99.90
2022-08-14T02:49:54.941Z,99.90
2022-08-14T02:52:56.776Z,99.90
2022-08-14T02:55:19.689Z,99.90
2022-08-14T02:57:58.263Z,99.90
2022-08-14T03:00:33.560Z,99.90
2022-08-14T03:03:03.022Z,99.90
2022-08-14T03:05:37.141Z,99.90
2022-08-14T03:08:15.324Z,99.90
2022-08-14T03:10:49.378Z,99.90
2022-08-14T03:13:21.419Z,99.90
2022-08-14T03:15:56.002Z,99.90
2022-08-14T03:18:31.150Z,99.90
2022-08-14T03:21:02.845Z,99.90
2022-08-14T03:23:38.104Z,99.90
2022-08-14T03:26:12.599Z,99.90
2022-08-14T03:28:50.132Z,99.90
2022-08-14T03:31:22.187Z,99.90
2022-08-14T03:33:54.685Z,99.90
2022-08-14T03:37:39.038Z,99.90
2022-08-14T03:39:22.079Z,99.90
2022-08-14T03:41:53.665Z,99.90
2022-08-14T03:45:19.936Z,99.90
2022-08-14T03:47:12.430Z,99.90
2022-08-14T03:49:46.074Z,99.90
2022-08-14T03:52:37.823Z,99.90
2022-08-14T03:55:08.353Z,99.90
2022-08-14T03:57:38.049Z,99.90
2022-08-14T04:00:42.995Z,99.90
2022-08-14T04:03:01.615Z,99.90
2022-08-14T04:05:38.046Z,99.90
2022-08-14T04:08:29.354Z,99.90
2022-08-14T04:11:01.044Z,99.90
2022-08-14T04:13:32.026Z,99.90
2022-08-14T04:16:06.793Z,99.90
2022-08-14T04:18:39.796Z,99.90
2022-08-14T04:21:11.354Z,99.90
2022-08-14T04:23:40.004Z,99.90
2022-08-14T04:26:14.915Z,99.90
2022-08-14T04:29:07.021Z,99.90
2022-08-14T04:32:59.927Z,99.90
2022-08-14T04:34:35.160Z,99.90
2022-08-14T04:37:25.309Z,99.90
2022-08-14T04:40:12.453Z,99.90
2022-08-14T04:42:58.790Z,99.90
2022-08-14T04:45:32.937Z,99.90
2022-08-14T04:48:39.112Z,99.90
2022-08-14T04:51:03.746Z,99.90
2022-08-14T04:53:34.951Z,99.90
2022-08-14T04:56:10.416Z,99.90
2022-08-14T04:58:40.320Z,99.90
2022-08-14T05:01:12.727Z,99.90
2022-08-14T05:03:50.593Z,99.90
2022-08-14T05:06:35.003Z,99.90
2022-08-14T05:09:07.273Z,99.90
2022-08-14T05:11:38.643Z,99.90
2022-08-14T05:14:16.691Z,99.90
2022-08-14T05:16:59.234Z,99.90
2022-08-14T05:19:31.854Z,99.90
2022-08-14T05:22:16.640Z,99.90
2022-08-14T05:24:50.414Z,99.90
2022-08-14T05:27:22.749Z,99.90
2022-08-14T05:29:53.885Z,99.90
2022-08-14T05:32:27.400Z,99.90
2022-08-14T05:34:59.252Z,99.90
2022-08-14T05:37:29.550Z,99.90
2022-08-14T05:40:00.575Z,99.90
2022-08-14T05:42:32.028Z,99.90
2022-08-14T05:45:17.432Z,99.90
2022-08-14T05:47:45.779Z,99.90
2022-08-14T05:50:20.734Z,99.90
2022-08-14T05:52:51.076Z,99.90
2022-08-14T05:55:22.734Z,99.90
2022-08-14T05:57:53.910Z,99.90
2022-08-14T06:00:24.910Z,99.90
2022-08-14T06:02:57.590Z,99.90
2022-08-14T06:05:28.973Z,99.90
2022-08-14T06:07:57.898Z,99.90
2022-08-14T06:10:29.367Z,99.90
2022-08-14T06:12:59.056Z,95.70
2022-08-14T06:15:30.287Z,94.20
2022-08-14T06:18:00.317Z,92.30
2022-08-14T06:20:31.340Z,90.20
2022-08-14T06:23:03.011Z,88.80
2022-08-14T06:25:32.656Z,86.50
2022-08-14T06:28:03.824Z,84.40
2022-08-14T06:30:46.289Z,84.70
2022-08-14T06:33:18.090Z,84.20
2022-08-14T06:35:50.165Z,82.80
2022-08-14T06:38:19.758Z,81.20
2022-08-14T06:40:51.753Z,83.60
2022-08-14T06:43:27.042Z,79.80
2022-08-14T06:45:58.189Z,81.00
2022-08-14T06:48:29.212Z,81.10
2022-08-14T06:51:02.864Z,79.00
2022-08-14T06:53:31.999Z,77.60
2022-08-14T06:56:02.073Z,78.90
2022-08-14T06:58:32.499Z,81.00
2022-08-14T07:01:27.489Z,82.00
2022-08-14T07:04:23.737Z,79.80
2022-08-14T07:06:58.982Z,77.90
2022-08-14T07:09:28.258Z,75.60
2022-08-14T07:12:44.861Z,73.90
2022-08-14T07:15:01.993Z,71.30
2022-08-14T07:17:31.913Z,68.00
2022-08-14T07:20:02.821Z,68.40
2022-08-14T07:22:56.370Z,68.40
2022-08-14T07:25:21.341Z,68.50
2022-08-14T07:27:50.030Z,67.00
2022-08-14T07:30:33.906Z,67.20
2022-08-14T07:33:04.012Z,67.40
2022-08-14T07:35:43.057Z,66.50
2022-08-14T07:38:24.684Z,64.50
2022-08-14T07:40:53.727Z,62.30
2022-08-14T07:43:23.075Z,59.90
2022-08-14T07:45:54.022Z,60.90
2022-08-14T07:48:25.127Z,62.50
2022-08-14T07:51:02.039Z,63.30
2022-08-14T07:53:36.495Z,63.30
2022-08-14T07:56:09.171Z,63.00
2022-08-14T07:58:51.392Z,63.20
2022-08-14T08:01:20.749Z,61.00
2022-08-14T08:03:59.376Z,62.40
2022-08-14T08:06:29.936Z,62.00
2022-08-14T08:09:03.142Z,59.60
2022-08-14T08:11:37.413Z,58.80
2022-08-14T08:14:10.665Z,59.40
2022-08-14T08:16:51.001Z,60.30
2022-08-14T08:19:19.986Z,61.70
2022-08-14T08:21:48.444Z,60.90
2022-08-14T08:24:19.674Z,59.70
2022-08-14T08:26:50.350Z,58.60
2022-08-14T08:29:28.696Z,57.30
2022-08-14T08:32:01.970Z,57.70
2022-08-14T08:34:46.190Z,57.20
2022-08-14T08:37:15.672Z,56.90
2022-08-14T08:40:03.324Z,56.20
2022-08-14T08:42:38.365Z,55.80
2022-08-14T08:45:12.069Z,53.60
2022-08-14T08:47:41.637Z,54.10
2022-08-14T08:50:31.459Z,54.50
2022-08-14T08:53:02.531Z,53.70
2022-08-14T08:55:35.013Z,54.60
2022-08-14T08:58:16.146Z,54.80
2022-08-14T09:00:49.617Z,53.70
2022-08-14T09:03:20.852Z,52.50
2022-08-14T09:05:54.685Z,50.80
2022-08-14T09:08:31.632Z,50.60
2022-08-14T09:11:19.174Z,50.50
2022-08-14T09:13:52.045Z,49.60
2022-08-14T09:16:23.731Z,51.40
2022-08-14T09:18:54.616Z,51.40
2022-08-14T09:21:23.828Z,51.50
2022-08-14T09:24:28.314Z,51.20
2022-08-14T09:26:49.198Z,50.90
2022-08-14T09:29:19.969Z,49.90
2022-08-14T09:31:57.757Z,50.50
2022-08-14T09:34:59.110Z,51.40
2022-08-14T09:37:46.346Z,50.80
2022-08-14T09:40:24.186Z,50.30
2022-08-14T09:43:05.421Z,50.60
2022-08-14T09:45:52.821Z,51.50
2022-08-14T09:48:29.878Z,51.70
2022-08-14T09:54:17.726Z,50.10
2022-08-14T09:56:31.744Z,50.50
2022-08-14T09:59:15.214Z,51.20
2022-08-14T10:01:46.269Z,50.00
2022-08-14T10:04:33.689Z,50.60
2022-08-14T10:07:05.433Z,49.50
2022-08-14T10:09:34.953Z,49.50
2022-08-14T10:12:13.382Z,52.10
2022-08-14T10:14:56.867Z,52.00
2022-08-14T10:17:33.034Z,52.50
2022-08-14T10:20:40.775Z,52.00
2022-08-14T10:23:12.075Z,49.80
2022-08-14T10:25:45.317Z,52.10
2022-08-14T10:28:39.140Z,53.40
2022-08-14T10:31:25.687Z,54.60
2022-08-14T10:34:03.109Z,53.90
2022-08-14T10:36:36.924Z,53.80
2022-08-14T10:39:09.774Z,54.30
2022-08-14T10:41:48.479Z,55.40
2022-08-14T10:44:29.785Z,56.80
2022-08-14T10:47:39.809Z,58.60
2022-08-14T10:50:00.028Z,60.50
2022-08-14T10:52:33.993Z,61.00
2022-08-14T10:55:14.312Z,61.40
2022-08-14T10:57:51.504Z,59.70
2022-08-14T11:00:29.934Z,60.90
2022-08-14T11:03:09.885Z,60.70
2022-08-14T11:05:43.273Z,62.40
2022-08-14T11:08:13.024Z,60.90
2022-08-14T11:10:45.634Z,61.40
2022-08-14T11:13:20.056Z,61.90
2022-08-14T11:15:49.301Z,62.00
2022-08-14T11:18:20.493Z,61.60
2022-08-14T11:20:57.303Z,59.90
2022-08-14T11:23:37.784Z,59.00
2022-08-14T11:26:08.146Z,57.80
2022-08-14T11:28:47.682Z,58.90
2022-08-14T11:31:20.240Z,58.70
2022-08-14T11:33:57.837Z,56.40
2022-08-14T11:36:57.150Z,56.10
2022-08-14T11:39:23.108Z,57.60
2022-08-14T11:42:56.960Z,56.60
2022-08-14T11:44:53.865Z,56.30
2022-08-14T11:47:24.897Z,56.60
2022-08-14T11:49:56.297Z,57.60
2022-08-14T11:52:40.354Z,57.10
2022-08-14T11:55:12.789Z,56.70
2022-08-14T11:57:42.407Z,56.80
2022-08-14T12:00:31.842Z,57.00
2022-08-14T12:03:04.329Z,57.10
2022-08-14T12:05:36.629Z,56.70
2022-08-14T12:08:11.983Z,56.00
2022-08-14T12:10:45.182Z,57.40
2022-08-14T12:13:17.332Z,58.10
2022-08-14T12:15:51.523Z,57.00
2022-08-14T12:18:32.433Z,57.10
2022-08-14T12:21:15.709Z,54.30
2022-08-14T12:23:45.001Z,56.00
2022-08-14T12:26:39.844Z,56.60
2022-08-14T12:29:08.592Z,57.00
2022-08-14T12:31:44.672Z,57.30
2022-08-14T12:34:20.735Z,57.50
2022-08-14T12:37:04.193Z,58.90
2022-08-14T12:39:40.305Z,58.00
2022-08-14T12:42:11.985Z,58.10
2022-08-14T12:45:00.086Z,58.40
2022-08-14T12:47:32.507Z,58.20
2022-08-14T12:50:01.621Z,58.60
2022-08-14T12:52:41.596Z,59.20
2022-08-14T12:55:22.420Z,59.10
2022-08-14T12:58:06.125Z,58.60
2022-08-14T13:01:14.209Z,58.90
2022-08-14T13:03:43.800Z,58.60
2022-08-14T13:06:14.715Z,58.00
2022-08-14T13:08:53.249Z,58.60
2022-08-14T13:11:23.815Z,58.90
2022-08-14T13:13:57.836Z,58.50
2022-08-14T13:16:37.758Z,57.90
2022-08-14T13:19:09.714Z,59.00
2022-08-14T13:22:05.542Z,57.90
2022-08-14T13:24:33.697Z,57.90
2022-08-14T13:27:04.861Z,57.30
2022-08-14T13:29:40.564Z,57.00
2022-08-14T13:32:10.314Z,57.80
2022-08-14T13:34:41.270Z,57.10
2022-08-14T13:37:09.711Z,58.90
2022-08-14T13:39:40.145Z,59.10
2022-08-14T13:42:13.851Z,58.50
2022-08-14T13:44:43.388Z,58.50
2022-08-14T13:47:15.402Z,60.50
2022-08-14T13:49:57.730Z,61.80
2022-08-14T13:52:59.081Z,62.60
2022-08-14T13:55:19.664Z,63.70
2022-08-14T13:57:59.484Z,64.50
2022-08-14T14:00:35.777Z,64.40
2022-08-14T14:03:08.052Z,64.60
2022-08-14T14:05:53.207Z,65.50
2022-08-14T14:08:45.650Z,64.50
2022-08-14T14:11:16.218Z,65.00
2022-08-14T14:13:46.466Z,65.50
2022-08-14T14:16:26.380Z,65.40
2022-08-14T14:19:08.925Z,64.80
2022-08-14T14:21:40.619Z,64.00
2022-08-14T14:24:11.796Z,64.10
2022-08-14T14:26:47.730Z,64.50
2022-08-14T14:29:24.070Z,63.90
2022-08-14T14:31:54.778Z,64.50
2022-08-14T14:34:30.107Z,65.50
2022-08-14T14:37:04.901Z,65.80
2022-08-14T14:39:37.984Z,66.30
2022-08-14T14:42:32.294Z,67.00
2022-08-14T14:45:11.350Z,66.50
2022-08-14T14:47:39.929Z,66.90
2022-08-14T14:50:11.199Z,66.90
2022-08-14T14:52:42.357Z,66.80
2022-08-14T14:55:13.499Z,65.30
2022-08-14T14:57:52.202Z,65.50
2022-08-14T15:00:23.369Z,65.10
2022-08-14T15:02:53.456Z,63.50
2022-08-14T15:05:28.652Z,62.80
2022-08-14T15:07:57.851Z,61.70
2022-08-14T15:10:31.713Z,61.60
2022-08-14T15:13:07.227Z,62.50
2022-08-14T15:15:37.317Z,62.60
2022-08-14T15:18:35.886Z,62.00
2022-08-14T15:20:57.541Z,62.40
2022-08-14T15:23:43.651Z,62.30
2022-08-14T15:26:24.230Z,60.30
2022-08-14T15:29:05.002Z,61.50
2022-08-14T15:31:36.191Z,62.20
2022-08-14T15:34:45.498Z,62.60
2022-08-14T15:37:04.765Z,63.50
2022-08-14T15:39:38.123Z,63.10
2022-08-14T15:42:14.581Z,63.50
2022-08-14T15:44:58.259Z,63.80
2022-08-14T15:47:31.603Z,64.00
2022-08-14T15:50:01.736Z,65.00
2022-08-14T15:52:35.229Z,65.10
2022-08-14T15:55:05.924Z,66.20
2022-08-14T15:57:35.186Z,65.50
2022-08-14T16:00:40.457Z,63.60
2022-08-14T16:03:16.507Z,63.90
2022-08-14T16:05:45.930Z,64.30
2022-08-14T16:08:29.340Z,64.20
2022-08-14T16:10:59.655Z,63.80
2022-08-14T16:13:39.770Z,63.20
2022-08-14T16:16:47.322Z,63.80
2022-08-14T16:19:10.881Z,64.50
2022-08-14T16:21:58.412Z,65.30
2022-08-14T16:24:34.878Z,65.70
2022-08-14T16:27:05.641Z,66.20
2022-08-14T16:29:38.530Z,65.90
2022-08-14T16:34:57.732Z,67.30
2022-08-14T16:37:31.106Z,67.00
2022-08-14T16:40:03.268Z,67.30
2022-08-14T16:42:40.081Z,67.80
2022-08-14T16:45:25.837Z,68.40
2022-08-14T16:47:55.892Z,68.70
2022-08-14T16:50:43.309Z,69.20
2022-08-14T16:53:17.778Z,69.70
2022-08-14T16:55:53.877Z,70.00
2022-08-14T16:58:30.187Z,70.50
2022-08-14T17:01:24.362Z,70.80
2022-08-14T17:03:58.234Z,71.10
2022-08-14T17:06:45.919Z,71.60
2022-08-14T17:09:36.567Z,71.30
2022-08-14T17:12:28.697Z,70.90
2022-08-14T17:15:10.553Z,70.70
2022-08-14T17:17:49.938Z,70.40
2022-08-14T17:20:53.476Z,70.50
2022-08-14T17:23:16.581Z,71.00
2022-08-14T17:25:50.727Z,71.00
2022-08-14T17:28:52.010Z,71.20
2022-08-14T17:31:09.315Z,71.60
2022-08-14T17:33:40.835Z,71.90
2022-08-14T17:36:21.498Z,72.00
2022-08-14T17:39:06.624Z,72.60
2022-08-14T17:41:38.758Z,73.50
2022-08-14T17:44:33.985Z,73.80
2022-08-14T17:47:14.861Z,74.20
2022-08-14T17:49:51.971Z,74.60
2022-08-14T17:52:36.029Z,75.20
2022-08-14T17:55:12.545Z,75.60
2022-08-14T17:58:00.667Z,76.20
2022-08-14T18:00:30.628Z,76.50
2022-08-14T18:03:00.213Z,77.00
2022-08-14T18:06:08.991Z,77.50
2022-08-14T18:08:32.170Z,78.20
2022-08-14T18:11:03.323Z,78.90
2022-08-14T18:13:51.461Z,79.50
2022-08-14T18:16:22.359Z,79.90
2022-08-14T18:18:52.137Z,80.50
2022-08-14T18:21:42.448Z,80.80
2022-08-14T18:24:29.101Z,81.50
2022-08-14T18:27:08.780Z,82.40
2022-08-14T18:29:42.804Z,83.10
2022-08-14T18:32:47.474Z,83.80
2022-08-14T18:35:46.021Z,84.90
2022-08-14T18:38:26.075Z,86.20
2022-08-14T18:41:37.071Z,87.60
2022-08-14T18:44:10.716Z,89.00
2022-08-14T18:47:20.875Z,90.10
2022-08-14T18:50:26.522Z,90.80
2022-08-14T18:53:06.957Z,91.90
2022-08-14T18:56:00.097Z,93.10
2022-08-14T18:58:48.512Z,94.80
2022-08-14T19:01:23.452Z,96.30
2022-08-14T19:03:53.172Z,97.80
2022-08-14T19:06:35.858Z,99.90
2022-08-14T19:09:05.519Z,99.90
2022-08-14T19:11:50.328Z,99.90
2022-08-14T19:14:48.426Z,99.90
2022-08-14T19:17:43.341Z,99.90
2022-08-14T19:20:47.524Z,99.90
2022-08-14T19:23:19.216Z,99.90
2022-08-14T19:25:54.390Z,99.90
2022-08-14T19:28:31.177Z,99.90
2022-08-14T19:31:42.271Z,99.90
2022-08-14T19:34:29.692Z,99.90
2022-08-14T19:37:10.122Z,99.90
2022-08-14T19:39:53.762Z,99.90
2022-08-14T19:42:28.045Z,99.90
2022-08-14T19:44:58.912Z,99.90
2022-08-14T19:47:41.268Z,99.90
2022-08-14T19:50:30.749Z,99.90
2022-08-14T19:53:11.132Z,99.90
2022-08-14T19:55:45.937Z,99.90
2022-08-14T19:58:14.686Z,99.90
2022-08-14T20:00:52.160Z,99.90
2022-08-14T20:03:24.234Z,99.90
2022-08-14T20:06:05.384Z,99.90
2022-08-14T20:09:05.199Z,99.90
2022-08-14T20:12:00.369Z,99.90
2022-08-14T20:14:22.888Z,99.90
2022-08-14T20:17:03.270Z,99.90
2022-08-14T20:19:38.118Z,99.90
2022-08-14T20:22:37.194Z,99.90
2022-08-14T20:25:14.044Z,99.90
2022-08-14T20:27:45.478Z,99.90
2022-08-14T20:30:29.639Z,99.90
2022-08-14T20:33:07.897Z,99.90
2022-08-14T20:35:46.877Z,99.90
2022-08-14T20:38:29.133Z,99.90
2022-08-14T20:41:06.914Z,99.90
2022-08-14T20:43:57.495Z,99.90
2022-08-14T20:46:31.201Z,99.90
2022-08-14T20:49:01.226Z,99.90
2022-08-14T20:51:43.625Z,99.90
2022-08-14T20:54:34.151Z,99.90
2022-08-14T20:57:08.236Z,99.90
2022-08-14T20:59:43.533Z,99.90
2022-08-14T21:02:29.743Z,99.90
2022-08-14T21:05:00.749Z,99.90
2022-08-14T21:07:36.714Z,99.90
2022-08-14T21:10:35.863Z,99.90
2022-08-14T21:13:26.769Z,99.90
2022-08-14T21:15:57.235Z,99.90
2022-08-14T21:18:29.430Z,99.90
2022-08-14T21:20:59.868Z,99.90
2022-08-14T21:23:32.400Z,99.90
2022-08-14T21:26:03.622Z,99.90
2022-08-14T21:28:35.300Z,99.90
2022-08-14T21:31:05.517Z,99.90
2022-08-14T21:33:37.273Z,99.90
2022-08-14T21:36:07.969Z,99.90
2022-08-14T21:38:42.411Z,99.90
2022-08-14T21:41:42.935Z,99.90
2022-08-14T21:44:17.680Z,99.90
2022-08-14T21:46:50.393Z,99.90
2022-08-14T21:49:22.572Z,99.90
2022-08-14T21:52:00.966Z,99.90
2022-08-14T21:54:49.921Z,99.90
2022-08-14T21:57:53.514Z,99.90
2022-08-14T22:00:35.449Z,99.90
2022-08-14T22:03:05.653Z,99.90
2022-08-14T22:05:35.645Z,99.90
2022-08-14T22:08:06.704Z,99.90
2022-08-14T22:10:36.742Z,99.90
2022-08-14T22:13:05.479Z,99.90
2022-08-14T22:15:35.668Z,99.90
2022-08-14T22:18:05.425Z,99.90
2022-08-14T22:20:36.437Z,99.90
2022-08-14T22:23:08.802Z,99.90
2022-08-14T22:25:41.052Z,99.90
2022-08-14T22:28:13.097Z,99.90
2022-08-14T22:30:41.731Z,99.90
2022-08-14T22:33:13.240Z,99.90
2022-08-14T22:35:44.037Z,99.90
2022-08-14T22:38:37.862Z,99.90
2022-08-14T22:41:26.573Z,99.90
2022-08-14T22:43:52.333Z,99.90
2022-08-14T22:46:21.871Z,99.90
2022-08-14T22:48:51.336Z,99.90
2022-08-14T22:51:22.676Z,99.90
2022-08-14T22:53:53.176Z,99.90
2022-08-14T22:56:30.171Z,99.90
2022-08-14T22:59:00.967Z,99.90
2022-08-14T23:01:55.065Z,99.90
2022-08-14T23:04:34.884Z,99.90
2022-08-14T23:07:21.797Z,99.90
2022-08-14T23:09:56.810Z,99.90
2022-08-14T23:12:31.850Z,99.90
2022-08-14T23:15:03.875Z,99.90
2022-08-14T23:17:38.812Z,99.90
2022-08-14T23:20:18.466Z,99.90
2022-08-14T23:22:51.653Z,99.90
2022-08-14T23:25:57.392Z,99.90
2022-08-14T23:28:34.157Z,99.90
2022-08-14T23:31:02.321Z,99.90
2022-08-14T23:33:36.062Z,99.90
2022-08-14T23:36:28.186Z,99.90
2022-08-14T23:39:02.152Z,99.90
2022-08-14T23:41:46.566Z,99.90
2022-08-14T23:44:23.605Z,99.90
2022-08-14T23:46:52.676Z,99.90
2022-08-14T23:49:25.446Z,99.90
2022-08-14T23:52:49.582Z,99.90
2022-08-14T23:54:48.306Z,99.90
2022-08-14T23:57:19.354Z,99.90
2022-08-14T23:59:54.398Z,99.90
